Time;durP1;ratioP1;P1;durP2;ratioP2;P2;SDS_P1;SDS_P2;PMS_P1;PMS_P2;Temp;Humidity;BMP_temperature;BMP_pressure;BME280_temperature;BME280_humidity;BME280_pressure;Samples;Min_cycle;Max_cycle;Signal;HPM_P1;HPM_P2
2022/09/11 00:02:11;;;;;;;10.57;4.65;;;15.30;99.90;;;;;;4987870;28;20038;-61
2022/09/11 00:04:36;;;;;;;5.70;4.72;;;15.20;99.90;;;;;;4992065;28;20034;-59
2022/09/11 00:07:02;;;;;;;8.68;4.25;;;15.10;99.90;;;;;;4990594;28;20389;-60
2022/09/11 00:09:28;;;;;;;8.18;4.70;;;15.00;99.90;;;;;;4987626;28;20022;-59
2022/09/11 00:11:54;;;;;;;5.82;4.20;;;14.80;99.90;;;;;;4988095;28;20149;-61
2022/09/11 00:14:20;;;;;;;10.52;4.57;;;14.60;99.90;;;;;;4988086;28;20964;-60
2022/09/11 00:16:46;;;;;;;9.32;5.35;;;14.50;99.90;;;;;;4989514;28;20034;-60
2022/09/11 00:19:17;;;;;;;7.72;4.50;;;14.40;99.90;;;;;;4990110;28;20042;-60
2022/09/11 00:21:44;;;;;;;9.05;5.50;;;14.40;99.90;;;;;;4988193;28;20030;-61
2022/09/11 00:24:10;;;;;;;7.90;4.60;;;14.30;99.90;;;;;;4989066;28;20030;-60
2022/09/11 00:26:37;;;;;;;5.20;4.18;;;14.20;99.90;;;;;;4991893;28;20109;-60
2022/09/11 00:29:03;;;;;;;6.55;4.00;;;14.10;99.90;;;;;;4995277;28;20030;-59
2022/09/11 00:31:31;;;;;;;7.45;4.20;;;14.00;99.90;;;;;;4991364;28;20045;-59
2022/09/11 00:33:57;;;;;;;10.35;4.07;;;14.00;99.90;;;;;;4989338;28;20041;-60
2022/09/11 00:36:31;;;;;;;7.75;3.80;;;14.00;99.90;;;;;;4981585;28;20474;-59
2022/09/11 00:38:58;;;;;;;4.82;4.05;;;13.90;99.90;;;;;;4987327;28;20058;-60
2022/09/11 00:41:34;;;;;;;8.68;4.50;;;14.00;99.90;;;;;;4986902;28;20038;-61
2022/09/11 00:44:07;;;;;;;4.70;4.20;;;13.90;99.90;;;;;;4987513;28;20034;-61
2022/09/11 00:46:43;;;;;;;8.68;4.57;;;13.90;99.90;;;;;;4986521;28;20125;-60
2022/09/11 00:49:14;;;;;;;5.57;4.88;;;14.00;99.90;;;;;;4981811;28;20474;-60
2022/09/11 00:51:42;;;;;;;5.88;4.40;;;13.90;99.90;;;;;;4991131;28;20038;-59
2022/09/11 00:54:11;;;;;;;7.88;4.80;;;13.90;99.90;;;;;;4988333;28;20113;-60
2022/09/11 00:56:40;;;;;;;7.55;4.45;;;13.90;99.90;;;;;;4990021;28;20036;-59
2022/09/11 00:59:07;;;;;;;6.32;5.35;;;13.80;99.90;;;;;;4989207;28;20046;-60
2022/09/11 01:01:33;;;;;;;8.95;5.20;;;13.70;99.90;;;;;;4991184;28;20034;-59
2022/09/11 01:04:03;;;;;;;8.18;5.35;;;13.50;99.90;;;;;;4990356;28;20034;-60
2022/09/11 01:06:29;;;;;;;6.47;5.03;;;13.50;99.90;;;;;;4991401;28;20088;-60
2022/09/11 01:08:54;;;;;;;7.22;5.13;;;13.50;99.90;;;;;;4990771;28;20030;-59
2022/09/11 01:11:49;;;;;;;7.93;5.18;;;13.50;99.90;;;;;;4988530;28;20536;-58
2022/09/11 01:14:27;;;;;;;6.80;4.85;;;13.50;99.90;;;;;;4989164;28;20031;-59
2022/09/11 01:17:06;;;;;;;7.82;4.80;;;13.50;99.90;;;;;;4985562;28;20126;-59
2022/09/11 01:20:04;;;;;;;9.23;5.25;;;13.60;99.90;;;;;;4989464;28;20466;-60
2022/09/11 01:23:15;;;;;;;4.70;4.13;;;13.60;99.90;;;;;;4990685;28;20034;-60
2022/09/11 01:26:05;;;;;;;11.13;5.18;;;13.50;99.90;;;;;;4986420;28;20038;-59
2022/09/11 01:28:37;;;;;;;7.32;5.38;;;13.50;99.90;;;;;;4985853;28;20589;-60
2022/09/11 01:31:09;;;;;;;9.55;5.22;;;13.40;99.90;;;;;;4985465;28;20022;-59
2022/09/11 01:33:54;;;;;;;;;;;13.50;99.90;;;;;;4988793;28;20125;-59
2022/09/11 01:36:27;;;;;;;7.55;4.78;;;13.40;99.90;;;;;;4979866;28;19913;-60
2022/09/11 01:39:01;;;;;;;8.25;4.65;;;13.40;99.90;;;;;;4984602;28;20054;-60
2022/09/11 01:41:29;;;;;;;7.18;5.28;;;13.30;99.90;;;;;;4982855;28;20497;-61
2022/09/11 01:44:03;;;;;;;9.18;5.70;;;13.30;99.90;;;;;;4984996;28;20026;-59
2022/09/11 01:46:33;;;;;;;9.60;5.40;;;13.30;99.90;;;;;;4990971;28;20073;-60
2022/09/11 01:49:06;;;;;;;8.82;6.20;;;13.30;99.90;;;;;;4987550;28;20051;-60
2022/09/11 01:51:35;;;;;;;7.70;4.85;;;13.30;99.90;;;;;;4987190;28;20038;-60
2022/09/11 01:54:03;;;;;;;10.18;5.78;;;13.30;99.90;;;;;;4984668;28;20045;-60
2022/09/11 01:56:35;;;;;;;9.57;6.10;;;13.30;99.90;;;;;;4981115;28;20492;-60
2022/09/11 01:59:06;;;;;;;11.48;5.43;;;13.20;99.90;;;;;;4985131;28;20062;-60
2022/09/11 02:01:38;;;;;;;8.70;5.40;;;13.20;99.90;;;;;;4985964;28;20038;-59
2022/09/11 02:04:09;;;;;;;12.77;6.10;;;13.10;99.90;;;;;;4987578;28;20026;-60
2022/09/11 02:06:58;;;;;;;8.90;5.60;;;13.10;99.90;;;;;;4988709;28;20117;-60
2022/09/11 02:09:29;;;;;;;9.15;5.68;;;13.10;99.90;;;;;;4988652;28;20132;-60
2022/09/11 02:11:58;;;;;;;7.03;5.43;;;13.10;99.90;;;;;;4985321;28;20023;-60
2022/09/11 02:14:40;;;;;;;8.80;5.68;;;13.00;99.90;;;;;;4986638;28;20034;-60
2022/09/11 02:17:14;;;;;;;8.80;5.38;;;13.00;99.90;;;;;;4987283;28;20030;-60
2022/09/11 02:19:40;;;;;;;7.35;5.57;;;13.00;99.90;;;;;;4990488;28;20031;-60
2022/09/11 02:22:06;;;;;;;7.78;6.13;;;13.00;99.90;;;;;;4988215;28;20492;-60
2022/09/11 02:24:32;;;;;;;7.32;5.30;;;13.00;99.90;;;;;;4983403;28;20026;-60
2022/09/11 02:27:04;;;;;;;7.32;5.60;;;13.10;99.90;;;;;;4984134;28;20046;-61
2022/09/11 02:29:30;;;;;;;9.75;5.60;;;13.10;99.90;;;;;;4985898;28;20470;-60
2022/09/11 02:31:56;;;;;;;7.43;5.50;;;13.00;99.90;;;;;;4990322;28;20359;-59
2022/09/11 02:34:27;;;;;;;8.70;5.43;;;13.00;99.90;;;;;;4987645;28;20552;-60
2022/09/11 02:37:02;;;;;;;7.60;5.30;;;13.00;99.90;;;;;;4988953;28;20034;-60
2022/09/11 02:39:39;;;;;;;8.25;5.68;;;12.90;99.90;;;;;;4989837;28;20085;-60
2022/09/11 02:42:38;;;;;;;9.63;6.28;;;12.90;99.90;;;;;;4984013;28;20033;-60
2022/09/11 02:45:27;;;;;;;6.90;5.82;;;12.80;99.90;;;;;;4983099;28;20034;-60
2022/09/11 02:48:14;;;;;;;12.40;7.82;;;12.90;99.90;;;;;;4986342;28;20038;-60
2022/09/11 02:51:01;;;;;;;11.65;8.65;;;12.90;99.90;;;;;;4994082;28;20086;-60
2022/09/11 02:53:46;;;;;;;15.57;11.38;;;13.10;99.90;;;;;;4986513;28;20035;-60
2022/09/11 02:56:15;;;;;;;19.90;12.85;;;13.20;99.90;;;;;;4984506;28;20073;-59
2022/09/11 02:58:58;;;;;;;20.05;12.57;;;13.30;99.90;;;;;;4996870;28;20089;-59
2022/09/11 03:01:23;;;;;;;16.73;11.93;;;13.40;99.90;;;;;;4992285;28;20034;-60
2022/09/11 03:03:49;;;;;;;15.85;11.52;;;13.40;99.90;;;;;;4993059;28;20033;-60
2022/09/11 03:06:24;;;;;;;16.40;11.82;;;13.50;99.90;;;;;;4990321;28;20042;-59
2022/09/11 03:08:50;;;;;;;16.77;11.55;;;13.40;99.90;;;;;;4992483;28;20030;-59
2022/09/11 03:11:16;;;;;;;15.93;11.63;;;13.40;99.90;;;;;;4986725;28;20041;-60
2022/09/11 03:13:43;;;;;;;15.80;11.15;;;13.40;99.90;;;;;;4993633;28;20045;-59
2022/09/11 03:16:10;;;;;;;13.77;10.70;;;13.30;99.90;;;;;;4987065;28;20029;-59
2022/09/11 03:18:35;;;;;;;13.68;9.60;;;13.20;99.90;;;;;;4991634;28;20045;-59
2022/09/11 03:21:02;;;;;;;20.58;10.00;;;13.20;99.90;;;;;;4991734;28;20030;-59
2022/09/11 03:23:29;;;;;;;12.18;7.80;;;13.10;99.90;;;;;;4990049;28;20030;-59
2022/09/11 03:25:54;;;;;;;10.90;7.50;;;13.00;99.90;;;;;;4992994;28;20033;-59
2022/09/11 03:28:21;;;;;;;9.25;6.45;;;12.80;99.90;;;;;;4987284;28;20030;-60
2022/09/11 03:30:48;;;;;;;10.38;6.07;;;12.70;99.90;;;;;;4993076;28;20033;-60
2022/09/11 03:33:16;;;;;;;9.88;5.90;;;12.50;99.90;;;;;;4990839;28;20038;-60
2022/09/11 03:35:43;;;;;;;10.68;5.88;;;12.50;99.90;;;;;;4993188;28;20127;-60
2022/09/11 03:38:10;;;;;;;7.65;5.90;;;12.30;99.90;;;;;;4981776;28;20099;-60
2022/09/11 03:40:37;;;;;;;9.52;6.72;;;12.30;99.90;;;;;;4979725;28;20456;-59
2022/09/11 03:43:02;;;;;;;8.48;6.50;;;12.30;99.90;;;;;;4990787;28;20030;-58
2022/09/11 03:45:28;;;;;;;8.68;5.93;;;12.20;99.90;;;;;;4993125;28;20437;-60
2022/09/11 03:47:54;;;;;;;7.90;5.97;;;12.20;99.90;;;;;;4985290;28;20046;-59
2022/09/11 03:50:20;;;;;;;7.55;5.75;;;12.20;99.90;;;;;;4988913;28;20030;-59
2022/09/11 03:52:45;;;;;;;10.10;6.18;;;12.20;99.90;;;;;;4993027;28;20088;-60
2022/09/11 03:55:11;;;;;;;6.72;5.80;;;12.10;99.90;;;;;;4990447;28;20069;-60
2022/09/11 03:57:38;;;;;;;8.07;6.55;;;12.10;99.90;;;;;;4990248;28;20505;-60
2022/09/11 04:00:05;;;;;;;8.02;5.95;;;12.00;99.90;;;;;;4989517;28;20483;-60
2022/09/11 04:02:30;;;;;;;7.15;5.45;;;12.00;99.90;;;;;;4990954;28;20038;-61
2022/09/11 04:04:56;;;;;;;7.82;5.80;;;12.00;99.90;;;;;;4987737;28;20192;-60
2022/09/11 04:07:22;;;;;;;8.43;5.25;;;11.90;99.90;;;;;;4987724;28;20494;-59
2022/09/11 04:09:48;;;;;;;7.18;5.80;;;11.90;99.90;;;;;;4984760;28;20063;-59
2022/09/11 04:12:15;;;;;;;6.65;5.95;;;11.90;99.90;;;;;;4985116;28;20385;-60
2022/09/11 04:14:40;;;;;;;7.00;5.68;;;11.80;99.90;;;;;;4992873;28;20062;-60
2022/09/11 04:17:07;;;;;;;6.80;5.72;;;11.80;99.90;;;;;;4990074;28;20536;-60
2022/09/11 04:19:33;;;;;;;7.93;6.60;;;11.80;99.90;;;;;;4992515;28;20030;-60
2022/09/11 04:21:59;;;;;;;7.93;5.65;;;11.80;99.90;;;;;;4991451;28;20034;-61
2022/09/11 04:24:25;;;;;;;7.35;6.10;;;11.70;99.90;;;;;;4990604;28;20040;-60
2022/09/11 04:26:50;;;;;;;8.25;5.57;;;11.60;99.90;;;;;;4990748;28;20034;-60
2022/09/11 04:29:16;;;;;;;9.00;5.82;;;11.70;99.90;;;;;;4988992;28;20097;-60
2022/09/11 04:31:42;;;;;;;7.18;5.63;;;11.70;99.90;;;;;;4990410;28;20401;-60
2022/09/11 04:34:10;;;;;;;7.32;5.55;;;11.70;99.90;;;;;;4990575;28;20073;-60
2022/09/11 04:36:36;;;;;;;10.27;5.65;;;11.60;99.90;;;;;;4994515;28;20031;-60
2022/09/11 04:39:02;;;;;;;8.77;5.20;;;11.50;99.90;;;;;;4990046;28;20057;-60
2022/09/11 04:41:28;;;;;;;5.18;4.65;;;11.50;99.90;;;;;;4990764;28;20542;-60
2022/09/11 04:43:55;;;;;;;6.95;4.85;;;11.50;99.90;;;;;;4990012;28;20101;-60
2022/09/11 04:46:23;;;;;;;7.40;5.35;;;11.40;99.90;;;;;;4984136;28;20790;-60
2022/09/11 04:48:51;;;;;;;6.70;5.07;;;11.40;99.90;;;;;;4981352;28;20072;-59
2022/09/11 04:51:25;;;;;;;7.22;4.90;;;11.40;99.90;;;;;;4989038;28;20022;-59
2022/09/11 04:53:56;;;;;;;9.43;5.20;;;11.50;99.90;;;;;;4991932;28;20031;-59
2022/09/11 04:56:23;;;;;;;6.78;5.15;;;11.50;99.90;;;;;;4989146;28;20513;-60
2022/09/11 04:59:04;;;;;;;7.68;5.03;;;11.50;99.90;;;;;;4987499;28;20022;-59
2022/09/11 05:01:32;;;;;;;9.85;5.28;;;11.40;99.90;;;;;;4990855;28;20512;-60
2022/09/11 05:04:01;;;;;;;7.57;5.63;;;11.40;99.90;;;;;;4990653;28;20054;-59
2022/09/11 05:06:29;;;;;;;6.45;4.90;;;11.30;99.90;;;;;;4989831;28;20022;-60
2022/09/11 05:08:55;;;;;;;9.52;4.95;;;11.30;99.90;;;;;;4991096;28;20033;-60
2022/09/11 05:11:21;;;;;;;6.22;5.50;;;11.30;99.90;;;;;;4987721;28;20113;-59
2022/09/11 05:13:47;;;;;;;7.32;5.85;;;11.30;99.90;;;;;;4991196;28;20569;-59
2022/09/11 05:16:15;;;;;;;7.28;4.80;;;11.30;99.90;;;;;;4989448;28;20374;-60
2022/09/11 05:18:47;;;;;;;8.18;4.72;;;11.30;99.90;;;;;;4989598;28;20033;-60
2022/09/11 05:21:14;;;;;;;13.77;5.78;;;11.40;99.90;;;;;;4982009;28;20041;-60
2022/09/11 05:23:41;;;;;;;10.27;5.88;;;11.40;99.90;;;;;;4990611;28;20030;-60
2022/09/11 05:26:14;;;;;;;7.13;5.97;;;11.40;99.90;;;;;;4988494;28;20037;-59
2022/09/11 05:28:40;;;;;;;7.57;5.88;;;11.50;99.90;;;;;;4989290;28;20501;-60
2022/09/11 05:31:16;;;;;;;7.13;5.32;;;11.50;99.90;;;;;;4989777;28;20030;-58
2022/09/11 05:33:45;;;;;;;7.65;5.72;;;11.60;99.90;;;;;;4990203;28;20040;-60
2022/09/11 05:36:12;;;;;;;10.23;6.28;;;11.60;99.90;;;;;;4989134;28;20037;-60
2022/09/11 05:38:39;;;;;;;7.90;5.43;;;11.70;99.90;;;;;;4990491;28;20064;-59
2022/09/11 05:41:07;;;;;;;9.73;6.55;;;11.70;99.90;;;;;;4988450;28;20042;-59
2022/09/11 05:43:34;;;;;;;9.35;6.32;;;11.80;99.90;;;;;;4985552;28;20077;-61
2022/09/11 05:46:00;;;;;;;7.25;5.18;;;11.80;99.90;;;;;;4983664;28;20031;-63
2022/09/11 05:48:33;;;;;;;8.40;5.57;;;11.80;99.90;;;;;;4988676;28;20034;-59
2022/09/11 05:51:02;;;;;;;9.85;7.18;;;12.00;99.90;;;;;;4991366;28;20030;-61
2022/09/11 05:53:32;;;;;;;8.32;6.00;;;12.10;99.90;;;;;;4990637;28;20034;-59
2022/09/11 05:56:05;;;;;;;11.35;5.03;;;12.20;99.90;;;;;;4987458;28;20426;-59
2022/09/11 05:58:32;;;;;;;7.13;4.95;;;12.30;99.90;;;;;;4991259;28;20027;-60
2022/09/11 06:01:15;;;;;;;10.32;5.65;;;12.30;99.90;;;;;;4988379;28;20038;-60
2022/09/11 06:03:40;;;;;;;11.57;6.47;;;12.20;99.90;;;;;;4988871;28;20549;-59
2022/09/11 06:06:11;;;;;;;15.95;6.72;;;12.30;99.90;;;;;;4987285;28;20034;-59
2022/09/11 06:08:42;;;;;;;14.38;7.55;;;12.20;99.90;;;;;;4986171;28;20516;-59
2022/09/11 06:11:09;;;;;;;19.92;8.25;;;12.30;99.90;;;;;;4986889;28;20030;-59
2022/09/11 06:13:38;;;;;;;15.85;8.75;;;12.30;99.90;;;;;;4989520;28;20050;-60
2022/09/11 06:16:14;;;;;;;20.45;8.52;;;12.30;99.90;;;;;;4986820;28;20022;-58
2022/09/11 06:18:39;;;;;;;15.30;9.00;;;12.30;99.90;;;;;;4990488;28;20061;-60
2022/09/11 06:21:09;;;;;;;21.92;9.40;;;12.30;99.90;;;;;;4987518;28;20389;-59
2022/09/11 06:23:36;;;;;;;17.38;9.15;;;12.40;99.90;;;;;;4985945;28;20038;-61
2022/09/11 06:26:07;;;;;;;26.63;9.82;;;12.40;99.90;;;;;;4989804;28;20022;-58
2022/09/11 06:28:36;;;;;;;18.50;10.05;;;12.40;99.90;;;;;;4989505;28;20509;-61
2022/09/11 06:31:11;;;;;;;20.42;9.52;;;12.50;99.90;;;;;;4988751;28;20042;-60
2022/09/11 06:33:38;;;;;;;21.73;9.43;;;12.50;99.90;;;;;;4987138;28;20030;-61
2022/09/11 06:36:07;;;;;;;20.90;9.00;;;12.60;99.90;;;;;;4983522;28;20031;-60
2022/09/11 06:38:32;;;;;;;17.85;9.23;;;12.60;99.90;;;;;;4990088;28;20053;-60
2022/09/11 06:41:03;;;;;;;17.27;8.70;;;12.60;99.90;;;;;;4987346;28;20034;-60
2022/09/11 06:43:29;;;;;;;18.98;8.85;;;12.70;99.90;;;;;;4990545;28;20035;-59
2022/09/11 06:46:13;;;;;;;14.15;8.75;;;12.70;99.90;;;;;;4989455;28;20033;-60
2022/09/11 06:48:40;;;;;;;16.85;9.85;;;12.70;99.90;;;;;;4986893;28;20075;-59
2022/09/11 06:51:10;;;;;;;19.88;10.25;;;12.80;99.90;;;;;;4988203;28;20026;-59
2022/09/11 06:53:36;;;;;;;14.98;8.75;;;12.90;99.90;;;;;;4990246;28;20026;-62
2022/09/11 06:56:05;;;;;;;17.13;9.32;;;12.90;99.90;;;;;;4992179;28;20045;-60
2022/09/11 06:58:31;;;;;;;14.00;8.70;;;13.10;99.90;;;;;;4989519;28;20034;-60
2022/09/11 07:01:13;;;;;;;12.82;8.60;;;13.10;99.90;;;;;;4985816;28;20073;-60
2022/09/11 07:03:44;;;;;;;12.57;8.05;;;13.20;99.90;;;;;;4979616;28;20038;-59
2022/09/11 07:06:10;;;;;;;13.60;7.65;;;13.30;99.90;;;;;;4984021;28;20034;-59
2022/09/11 07:08:36;;;;;;;15.75;8.98;;;13.40;99.90;;;;;;4991472;28;20030;-61
2022/09/11 07:11:03;;;;;;;14.98;7.63;;;13.50;99.90;;;;;;4985191;28;20371;-62
2022/09/11 07:13:31;;;;;;;12.18;8.05;;;13.70;99.90;;;;;;4988746;28;20450;-60
2022/09/11 07:16:01;;;;;;;10.90;7.00;;;13.80;99.90;;;;;;4988256;28;20030;-60
2022/09/11 07:18:32;;;;;;;13.60;7.55;;;13.90;99.90;;;;;;4987475;28;20026;-62
2022/09/11 07:20:59;;;;;;;13.48;7.75;;;13.90;99.90;;;;;;4986881;28;20026;-59
2022/09/11 07:23:24;;;;;;;12.35;8.18;;;13.90;99.90;;;;;;4989470;28;20045;-60
2022/09/11 07:25:50;;;;;;;10.93;7.18;;;14.10;99.90;;;;;;4982287;28;20023;-60
2022/09/11 07:28:16;;;;;;;18.88;8.43;;;14.10;99.90;;;;;;4986489;28;20462;-60
2022/09/11 07:30:42;;;;;;;10.40;7.95;;;14.30;99.90;;;;;;4990312;28;20521;-62
2022/09/11 07:33:08;;;;;;;11.25;8.80;;;14.40;99.90;;;;;;4990366;28;20410;-60
2022/09/11 07:35:36;;;;;;;14.05;7.95;;;14.50;99.90;;;;;;4991007;28;20497;-60
2022/09/11 07:38:02;;;;;;;11.27;8.77;;;14.60;99.90;;;;;;4991502;28;20042;-60
2022/09/11 07:40:28;;;;;;;12.23;8.15;;;14.50;99.90;;;;;;4992289;28;20409;-60
2022/09/11 07:42:53;;;;;;;13.73;8.18;;;14.70;99.90;;;;;;4992783;28;20486;-59
2022/09/11 07:45:20;;;;;;;9.75;7.20;;;14.80;99.90;;;;;;4989373;28;20394;-60
2022/09/11 07:47:45;;;;;;;11.55;7.50;;;14.90;99.90;;;;;;4992780;28;20038;-60
2022/09/11 07:50:11;;;;;;;10.05;7.32;;;14.90;99.90;;;;;;4990328;28;20033;-59
2022/09/11 07:52:37;;;;;;;11.05;8.13;;;15.10;99.90;;;;;;4992962;28;20022;-61
2022/09/11 07:55:03;;;;;;;11.63;7.47;;;15.10;99.90;;;;;;4991164;28;20022;-59
2022/09/11 07:57:30;;;;;;;13.52;8.35;;;15.20;99.90;;;;;;4990872;28;20391;-60
2022/09/11 07:59:55;;;;;;;11.70;8.27;;;15.30;99.90;;;;;;4986852;28;20077;-60
2022/09/11 08:02:22;;;;;;;14.27;9.38;;;15.40;99.90;;;;;;4988882;28;20429;-60
2022/09/11 08:04:47;;;;;;;15.82;10.00;;;15.30;99.90;;;;;;4992431;28;20042;-60
2022/09/11 08:07:13;;;;;;;13.15;9.40;;;15.40;99.90;;;;;;4981366;28;20065;-60
2022/09/11 08:09:39;;;;;;;13.02;9.32;;;15.40;99.90;;;;;;4986590;28;20496;-60
2022/09/11 08:12:05;;;;;;;16.63;10.10;;;15.40;99.90;;;;;;4990060;28;20038;-60
2022/09/11 08:14:31;;;;;;;14.05;9.60;;;15.40;99.90;;;;;;4991792;28;20097;-60
2022/09/11 08:16:56;;;;;;;15.68;9.15;;;15.40;99.90;;;;;;4987784;28;20030;-60
2022/09/11 08:19:22;;;;;;;16.00;9.93;;;15.40;99.90;;;;;;4990206;28;20441;-61
2022/09/11 08:21:49;;;;;;;15.65;9.45;;;15.40;99.90;;;;;;4992156;28;20043;-61
2022/09/11 08:24:16;;;;;;;15.98;10.13;;;15.40;99.90;;;;;;4990194;28;20026;-61
2022/09/11 08:26:42;;;;;;;15.63;9.48;;;15.50;99.90;;;;;;4991870;28;20121;-60
2022/09/11 08:29:08;;;;;;;15.20;10.02;;;15.70;99.90;;;;;;4986188;28;20137;-60
2022/09/11 08:31:34;;;;;;;13.15;8.65;;;15.90;99.90;;;;;;4989906;28;20026;-60
2022/09/11 08:34:00;;;;;;;17.08;9.73;;;16.00;99.90;;;;;;4991825;28;20494;-60
2022/09/11 08:36:26;;;;;;;12.23;8.43;;;16.10;99.90;;;;;;4983791;28;20471;-60
2022/09/11 08:38:52;;;;;;;11.82;9.13;;;16.20;99.90;;;;;;4991266;28;20081;-60
2022/09/11 08:41:26;;;;;;;12.32;8.93;;;16.30;99.90;;;;;;4989517;28;20038;-60
2022/09/11 08:43:55;;;;;;;13.55;9.02;;;16.40;99.90;;;;;;4989755;28;20030;-60
2022/09/11 08:46:25;;;;;;;12.23;8.80;;;16.50;99.90;;;;;;4981150;28;20132;-60
2022/09/11 08:49:07;;;;;;;9.63;8.60;;;16.60;99.90;;;;;;4991114;28;20436;-59
2022/09/11 08:51:34;;;;;;;14.10;10.05;;;16.70;99.90;;;;;;4985955;28;20080;-62
2022/09/11 08:54:01;;;;;;;12.40;8.43;;;16.80;99.90;;;;;;4989010;28;20026;-60
2022/09/11 08:56:29;;;;;;;11.23;8.73;;;16.90;99.90;;;;;;4988969;28;20084;-60
2022/09/11 08:59:25;;;;;;;11.20;8.85;;;17.00;99.90;;;;;;4991375;28;20018;-61
2022/09/11 09:01:54;;;;;;;11.80;8.20;;;17.10;99.90;;;;;;4988991;28;20050;-60
2022/09/11 09:04:29;;;;;;;14.02;10.02;;;17.30;99.90;;;;;;4989555;28;20076;-60
2022/09/11 09:07:26;;;;;;;13.40;9.80;;;17.40;99.90;;;;;;4991077;28;20042;-59
2022/09/11 09:10:15;;;;;;;16.30;9.55;;;17.50;99.90;;;;;;4991234;28;20222;-60
2022/09/11 09:13:05;;;;;;;13.40;9.25;;;17.60;99.90;;;;;;4987854;28;20050;-60
2022/09/11 09:15:41;;;;;;;11.52;9.15;;;17.60;99.90;;;;;;4987808;28;20037;-60
2022/09/11 09:18:26;;;;;;;15.18;9.30;;;17.70;99.90;;;;;;4993166;28;20034;-61
2022/09/11 09:21:34;;;;;;;12.88;9.30;;;17.90;99.90;;;;;;4988583;28;20243;-60
2022/09/11 09:24:03;;;;;;;11.77;8.60;;;18.00;99.90;;;;;;4987946;28;20394;-60
2022/09/11 09:26:38;;;;;;;12.13;8.35;;;18.30;99.90;;;;;;4989443;28;20463;-60
2022/09/11 09:29:08;;;;;;;12.55;8.60;;;18.50;99.90;;;;;;4986027;28;20035;-60
2022/09/11 09:31:37;;;;;;;10.52;8.32;;;18.80;99.90;;;;;;4992676;28;20033;-61
2022/09/11 09:34:21;;;;;;;8.25;6.13;;;19.00;99.90;;;;;;4991512;28;20505;-58
2022/09/11 09:37:06;;;;;;;13.02;7.45;;;19.40;99.90;;;;;;4990994;28;20018;-60
2022/09/11 09:39:36;;;;;;;8.52;5.88;;;19.70;99.90;;;;;;4982780;28;20042;-60
2022/09/11 09:42:05;;;;;;;9.80;5.70;;;19.90;99.90;;;;;;4989323;28;20026;-59
2022/09/11 09:44:49;;;;;;;8.50;5.70;;;20.10;99.90;;;;;;4988872;28;20045;-59
2022/09/11 09:47:16;;;;;;;7.78;5.78;;;20.20;99.90;;;;;;4985601;28;20504;-60
2022/09/11 09:49:43;;;;;;;9.45;5.93;;;20.00;99.90;;;;;;4990066;28;20022;-60
2022/09/11 09:52:12;;;;;;;8.13;5.82;;;20.00;99.90;;;;;;4988120;28;20022;-61
2022/09/11 09:54:38;;;;;;;7.10;5.13;;;20.30;99.90;;;;;;4989969;28;20490;-60
2022/09/11 09:57:09;;;;;;;10.40;6.32;;;20.40;99.90;;;;;;4987674;28;20030;-59
2022/09/11 09:59:44;;;;;;;7.78;5.13;;;20.60;99.90;;;;;;4989835;28;20030;-61
2022/09/11 10:02:11;;;;;;;7.20;4.25;;;20.70;99.90;;;;;;4976276;28;20045;-60
2022/09/11 10:04:36;;;;;;;8.68;4.47;;;20.80;99.90;;;;;;4984630;28;20058;-61
2022/09/11 10:07:09;;;;;;;5.95;3.63;;;20.90;99.90;;;;;;4989288;28;20077;-61
2022/09/11 10:09:35;;;;;;;6.80;3.35;;;21.00;99.90;;;;;;4981406;28;20118;-60
2022/09/11 10:12:15;;;;;;;5.28;3.10;;;21.20;99.90;;;;;;4982093;28;20149;-60
2022/09/11 10:15:01;;;;;;;7.00;3.22;;;21.40;99.90;;;;;;4986042;28;20419;-61
2022/09/11 10:17:34;;;;;;;3.90;2.78;;;21.50;99.90;;;;;;4985854;28;20102;-61
2022/09/11 10:20:21;;;;;;;5.70;3.05;;;21.40;99.90;;;;;;4989057;28;20039;-61
2022/09/11 10:22:49;;;;;;;9.60;3.45;;;21.30;99.90;;;;;;4985938;28;20027;-60
2022/09/11 10:25:26;;;;;;;6.65;3.83;;;21.50;99.90;;;;;;4987890;28;20109;-61
2022/09/11 10:28:10;;;;;;;3.55;3.13;;;21.50;99.90;;;;;;4989415;28;20042;-60
2022/09/11 10:30:39;;;;;;;3.72;2.65;;;21.60;99.90;;;;;;4983192;28;20026;-61
2022/09/11 10:33:17;;;;;;;4.07;3.00;;;21.90;99.90;;;;;;4980063;28;20031;-60
2022/09/11 10:35:53;;;;;;;5.47;2.50;;;22.30;99.90;;;;;;4984345;28;20052;-60
2022/09/11 10:38:22;;;;;;;6.15;2.40;;;22.30;99.90;;;;;;4982551;28;20073;-60
2022/09/11 10:41:09;;;;;;;5.55;2.60;;;22.20;99.90;;;;;;4985381;28;20035;-61
2022/09/11 10:43:41;;;;;;;3.72;2.00;;;22.40;99.90;;;;;;4989938;28;20022;-60
2022/09/11 10:46:33;;;;;;;5.22;2.25;;;22.50;99.90;;;;;;4977844;28;20035;-61
2022/09/11 10:49:05;;;;;;;3.47;2.20;;;22.40;99.90;;;;;;4986717;28;20474;-61
2022/09/11 10:51:32;;;;;;;;;;;22.20;99.90;;;;;;4982408;28;20039;-60
2022/09/11 10:54:12;;;;;;;3.08;1.90;;;22.00;99.90;;;;;;4989432;28;19910;-61
2022/09/11 10:57:00;;;;;;;5.57;2.38;;;21.80;99.90;;;;;;4988807;28;20136;-60
2022/09/11 10:59:39;;;;;;;4.97;2.15;;;21.80;99.90;;;;;;4986319;28;20022;-60
2022/09/11 11:02:28;;;;;;;5.65;2.75;;;22.10;99.90;;;;;;4987999;28;20030;-61
2022/09/11 11:04:56;;;;;;;6.90;2.22;;;22.10;99.90;;;;;;4989546;28;20061;-61
2022/09/11 11:07:31;;;;;;;3.90;2.05;;;22.50;99.90;;;;;;4989892;28;20042;-60
2022/09/11 11:10:24;;;;;;;4.65;2.08;;;23.10;99.90;;;;;;4993300;28;20105;-59
2022/09/11 11:13:13;;;;;;;5.18;1.98;;;23.20;99.90;;;;;;4991162;28;20464;-61
2022/09/11 11:15:57;;;;;;;5.32;2.00;;;22.90;99.90;;;;;;4993503;28;20034;-60
2022/09/11 11:18:34;;;;;;;4.80;1.90;;;23.30;99.90;;;;;;4991559;28;20085;-61
2022/09/11 11:20:59;;;;;;;4.35;2.40;;;23.20;99.90;;;;;;4993145;28;20026;-60
2022/09/11 11:23:50;;;;;;;4.20;2.00;;;23.00;99.90;;;;;;4988672;28;20030;-62
2022/09/11 11:27:04;;;;;;;4.00;1.50;;;23.50;99.90;;;;;;4990755;28;20506;-61
2022/09/11 11:30:02;;;;;;;6.88;2.03;;;24.30;99.90;;;;;;4971499;28;20035;-61
2022/09/11 11:32:42;;;;;;;3.35;1.80;;;24.40;99.90;;;;;;4962941;28;20031;-60
2022/09/11 11:35:19;;;;;;;4.07;1.70;;;24.40;99.90;;;;;;4969494;28;20046;-60
2022/09/11 11:37:51;;;;;;;2.17;1.52;;;23.70;99.90;;;;;;4970966;28;20363;-60
2022/09/11 11:40:25;;;;;;;7.88;2.33;;;23.50;99.90;;;;;;4969792;28;20415;-61
2022/09/11 11:43:02;;;;;;;4.50;1.63;;;23.60;99.90;;;;;;4970566;28;20030;-60
2022/09/11 11:46:11;;;;;;;4.75;1.52;;;23.60;99.90;;;;;;4969397;28;20033;-61
2022/09/11 11:48:48;;;;;;;2.95;1.23;;;23.60;99.90;;;;;;4961375;28;20134;-60
2022/09/11 11:51:26;;;;;;;2.88;1.60;;;23.60;99.90;;;;;;4969795;28;20197;-61
2022/09/11 11:54:09;;;;;;;5.50;1.73;;;23.90;99.90;;;;;;4954544;28;20487;-60
2022/09/11 11:57:04;;;;;;;6.88;2.00;;;23.50;99.90;;;;;;4970538;28;20043;-60
2022/09/11 11:59:55;;;;;;;4.85;2.28;;;23.20;99.90;;;;;;4954200;28;20042;-60
2022/09/11 12:02:32;;;;;;;4.35;1.45;;;23.60;99.90;;;;;;4969170;28;20038;-61
2022/09/11 12:05:04;;;;;;;5.43;2.05;;;23.40;99.90;;;;;;4971155;28;20027;-61
2022/09/11 12:07:32;;;;;;;5.80;1.98;;;23.60;99.90;;;;;;4989883;28;20038;-62
2022/09/11 12:10:00;;;;;;;4.80;1.58;;;24.20;99.90;;;;;;4991253;28;20119;-62
2022/09/11 12:12:41;;;;;;;2.13;1.38;;;24.30;99.90;;;;;;4989548;28;20162;-61
2022/09/11 12:15:16;;;;;;;5.72;1.60;;;23.80;99.90;;;;;;4990892;28;20034;-61
2022/09/11 12:17:42;;;;;;;2.92;1.30;;;23.30;99.90;;;;;;4991721;28;20097;-60
2022/09/11 12:20:11;;;;;;;3.40;1.35;;;24.10;99.90;;;;;;4988846;28;20042;-60
2022/09/11 12:22:47;;;;;;;3.53;1.40;;;25.30;99.90;;;;;;4991851;28;20038;-60
2022/09/11 12:25:21;;;;;;;8.45;2.33;;;26.00;99.90;;;;;;4990155;28;20026;-62
2022/09/11 12:27:51;;;;;;;4.00;1.63;;;26.30;99.90;;;;;;4989507;28;20054;-60
2022/09/11 12:30:17;;;;;;;2.33;1.50;;;25.70;99.90;;;;;;4984423;28;20037;-60
2022/09/11 12:32:53;;;;;;;6.00;1.50;;;25.80;99.90;;;;;;4990962;28;20031;-61
2022/09/11 12:35:38;;;;;;;4.70;1.90;;;25.80;99.90;;;;;;4988557;28;20037;-61
2022/09/11 12:38:07;;;;;;;5.53;1.55;;;26.00;99.90;;;;;;4984789;28;20039;-60
2022/09/11 12:40:33;;;;;;;3.88;1.60;;;25.80;99.90;;;;;;4989113;28;20057;-59
2022/09/11 12:43:15;;;;;;;2.78;1.30;;;25.40;99.90;;;;;;4989766;28;20397;-61
2022/09/11 12:45:42;;;;;;;3.00;1.35;;;25.10;99.90;;;;;;4985189;28;20439;-60
2022/09/11 12:48:15;;;;;;;4.93;1.60;;;25.50;99.90;;;;;;4982617;28;20113;-60
2022/09/11 12:50:54;;;;;;;7.57;1.70;;;26.40;99.90;;;;;;4987918;28;20018;-60
2022/09/11 12:53:25;;;;;;;3.88;1.45;;;27.60;99.90;;;;;;4984859;28;20030;-61
2022/09/11 12:56:02;;;;;;;1.77;1.48;;;27.10;99.90;;;;;;4989039;28;20501;-61
2022/09/11 12:58:37;;;;;;;4.80;1.80;;;26.10;99.90;;;;;;4989789;28;20038;-61
2022/09/11 13:01:11;;;;;;;5.55;1.70;;;25.50;99.90;;;;;;4989887;28;20069;-60
2022/09/11 13:03:49;;;;;;;4.88;1.30;;;25.20;99.90;;;;;;4991323;28;20073;-60
2022/09/11 13:06:15;;;;;;;4.53;1.60;;;25.20;99.90;;;;;;4989310;28;20180;-61
2022/09/11 13:09:00;;;;;;;3.67;1.63;;;25.50;99.90;;;;;;4991476;28;20121;-60